Metar Cercanos

 

LEPA - Palma De Mallorc, Spain
Distance from station: ONO 38km
Actualización: Fri, 27-Jan-2023 12:00am CET
Few Clouds
Few Clouds
 Viento del N
Viento: N 6 km/h
Temperatura: 4°C
Rocío: 3°C
Humedad: 93%
Barómetro: 1014 hPa
Clouds: Few Clouds
Visibility: 10 km
Cloud details: Few Clouds 762 m
2023/01/26 23:00 LEPA 262300Z 35003KT 9999 FEW025 04/03 Q1014 NOSIG
LEMH - Mahon/Menorca Is, Spain
Distance from station: ENE 105km
Actualización: Fri, 27-Jan-2023 12:00am CET
Lluvia débil, Muy nuboso
Lluvia débil, Muy nuboso
 Viento del N
Viento: N 11 km/h
Temperatura: 7°C
Sensación frio: 5°C
Rocío: 5°C
Humedad: 87%
Barómetro: 1013 hPa
Resumen: Lluvia débil
Clouds: Muy nuboso
Visibility: 10 km
Cloud details: Few Clouds 366 m
Muy nuboso 762 m
Muy nuboso 914 m
2023/01/26 23:00 LEMH 262300Z AUTO 36006KT 9999 -RA FEW012/// BKN025/// BKN030/// 07/05 Q1013
 
LEIB - Ibiza/Es Codola, Spain
Distance from station: OSO 165km
Actualización: Fri, 27-Jan-2023 12:00am CET
Despejado
Despejado
 Viento del calm
Viento: Calma
Temperatura: 4°C
Rocío: 2°C
Humedad: 87%
Barómetro: 1014 hPa
Resumen: Despejado
Visibility: greater than 10 km
2023/01/26 23:00 LEIB 262300Z 00000KT CAVOK 04/02 Q1014 NOSIG
LEBL - Barcelona Airpor, Spain
Distance from station: NNO 225km
Actualización: Fri, 27-Jan-2023 12:00am CET
Muy nuboso
Muy nuboso
 Viento del NNO
Viento: NNO 15 km/h
Temperatura: 5°C
Sensación frio: 2°C
Rocío: 1°C
Humedad: 76%
Barómetro: 1014 hPa
Clouds: Muy nuboso
Visibility: 10 km
Cloud details: Muy nuboso 1128 m
2023/01/26 23:00 LEBL 262300Z 33008KT 9999 BKN037 05/01 Q1014 NOSIG
 
LEVC - Valencia (civ/Mi, Spain
Distance from station: NO 188km
Actualización: Fri, 27-Jan-2023 12:00am CET
Despejado
Despejado
 Viento del O
Viento: O 6 km/h
Temperatura: 3°C
Rocío: -1°C
Humedad: 75%
Barómetro: 1015 hPa
Resumen: Despejado
Visibility: greater than 10 km
2023/01/26 23:00 LEVC 262300Z 28003KT 260V320 CAVOK 03/M01 Q1015 NOSIG
LEGE - Gerona/Costa Bra, Spain
Distance from station: N 276km
Actualización: Fri, 27-Jan-2023 12:00am CET
Despejado
Despejado
 Viento del varies
Viento: varies 4 km/h
Temperatura: 0°C
Rocío: -2°C
Humedad: 87%
Barómetro: 1014 hPa
Resumen: Despejado
Visibility: greater than 10 km
2023/01/26 23:00 LEGE 262300Z VRB02KT CAVOK M00/M02 Q1014
 
LEAL - Alicante/El Alte, Spain
Distance from station: OSO 344km
Actualización: Fri, 27-Jan-2023 12:00am CET
Despejado
Despejado
 Viento del O
Viento: O 6 km/h
Temperatura: 4°C
Rocío: 0°C
Humedad: 75%
Barómetro: 1015 hPa
Resumen: Despejado
Visibility: greater than 10 km
2023/01/26 23:00 LEAL 262300Z 27003KT CAVOK 04/00 Q1015 NOSIG
LEAM - Almeria Airport, Spain
Distance from station: SSO 56km
Actualización: Fri, 27-Jan-2023 12:00am CET
Despejado
Despejado
 Viento del NNO
Viento: NNO 13 km/h
Temperatura: 10°C
Sensación frio: 8°C
Rocío: -1°C
Humedad: 47%
Barómetro: 1016 hPa
Resumen: Despejado
Visibility: greater than 10 km
2023/01/26 23:00 LEAM 262300Z AUTO 34007KT CAVOK 10/M01 Q1016
 
LEZG - Zaragoza (mil/Ci, Spain
Distance from station: NO 431km
Actualización: Fri, 27-Jan-2023 12:00am CET
Despejado
Despejado
 Viento del ONO
Viento: ONO 50 km/h
Temperatura: 5°C
Sensación frio: -1°C
Rocío: -2°C
Humedad: 61%
Barómetro: 1016 hPa
Resumen: Despejado
Visibility: greater than 10 km
2023/01/26 23:00 LEZG 262300Z 30027KT CAVOK 05/M02 Q1016
LEMD - Madrid/Barajas, Spain
Distance from station: ONO 234km
Actualización: Fri, 27-Jan-2023 12:00am CET
Despejado
Despejado
 Viento del N
Viento: N 7 km/h
Temperatura: 3°C
Sensación frio: 1°C
Rocío: -3°C
Humedad: 65%
Barómetro: 1017 hPa
Resumen: Despejado
Visibility: greater than 10 km
2023/01/26 23:00 LEMD 262300Z 35004KT 310V010 CAVOK 03/M03 Q1017 NOSIG
 
LEGR - Granada Airport, Spain
Distance from station: OSO 62km
Actualización: Fri, 27-Jan-2023 12:00am CET
Cubierto
Cubierto
 Viento del varies
Viento: varies 2 km/h
Temperatura: 4°C
Rocío: 0°C
Humedad: 75%
Barómetro: 1016 hPa
Clouds: Cubierto
Visibility: 10 km
Cloud details: Cubierto 2316 m
2023/01/26 23:00 LEGR 262300Z AUTO VRB01KT 9999 OVC076 04/00 Q1016
LEMG - Malaga (civ/Mil), Spain
Distance from station: OSO 227km
Actualización: Fri, 27-Jan-2023 12:00am CET
Despejado
Despejado
 Viento del ONO
Viento: ONO 20 km/h
Temperatura: 8°C
Sensación frio: 4°C
Rocío: 0°C
Humedad: 57%
Barómetro: 1017 hPa
Resumen: Despejado
Visibility: greater than 10 km
2023/01/26 23:00 LEMG 262300Z 29011KT CAVOK 08/M00 Q1017 NOSIG
 
LEZL - Sevilla (civ/Mil, Spain
Distance from station: S 318km
Actualización: Fri, 27-Jan-2023 12:00am CET
Despejado
Despejado
 Viento del calm
Viento: Calma
Temperatura: 5°C
Rocío: 1°C
Humedad: 76%
Barómetro: 1018 hPa
Resumen: Despejado
Visibility: greater than 10 km
2023/01/26 23:00 LEZL 262300Z 00000KT CAVOK 05/01 Q1018 NOSIG
LEVT - Vitoria, Spain
Distance from station: NO 226km
Actualización: Fri, 27-Jan-2023 12:00am CET
Muy nuboso
Muy nuboso
 Viento del varies
Viento: varies 2 km/h
Temperatura: 2°C
Rocío: 2°C
Humedad: 100%
Barómetro: 1021 hPa
Clouds: Muy nuboso
Visibility: 8 km
Cloud details: Muy nuboso 274 m
Muy nuboso 610 m
2023/01/26 23:00 LEVT 262300Z VRB01KT 8000 BKN009 BKN020 02/02 Q1021
 
LEBB - Bilbao/Sondica, Spain
Distance from station: NNO 235km
Actualización: Fri, 27-Jan-2023 12:00am CET
Lluvia débil, Cubierto
Lluvia débil, Cubierto
 Viento del ENE
Viento: ENE 4 km/h
Temperatura: 6°C
Rocío: 6°C
Humedad: 100%
Barómetro: 1024 hPa
Resumen: Lluvia débil
Clouds: Cubierto
Visibility: 6 km
Cloud details: Muy nuboso 549 m
Cubierto 701 m
2023/01/26 23:00 LEBB 262300Z AUTO 06002KT 6000 -RA BKN018 OVC023 06/06 Q1024
LESO - San Sebastian/Fu, Spain
Distance from station: N 231km
Actualización: Fri, 27-Jan-2023 12:00am CET
Cubierto
Cubierto
 Viento del SSE
Viento: SSE 6 km/h
Temperatura: 4°C
Rocío: 1°C
Humedad: 81%
Barómetro: 1024 hPa
Clouds: Cubierto
Visibility: 10 km
Cloud details: Parcialmente nuboso 671 m
Cubierto 853 m
2023/01/26 23:00 LESO 262300Z AUTO 15003KT 9999 SCT022 OVC028 04/01 Q1024
 
LEVD - Valladolid(Mil/C, Spain
Distance from station: ONO 239km
Actualización: Fri, 27-Jan-2023 12:00am CET
Despejado
Despejado
 Viento del NE
Viento: NE 19 km/h
Temperatura: 1°C
Sensación frio: -4°C
Rocío: -1°C
Humedad: 87%
Barómetro: 1020 hPa
Resumen: Despejado
Visibility: greater than 10 km
2023/01/26 23:00 LEVD 262300Z 04010KT CAVOK 01/M01 Q1020
LESA - Salamanca (civ/M, Spain
Distance from station: ONO 349km
Actualización: Fri, 27-Jan-2023 12:00am CET
Cubierto
Cubierto
 Viento del E
Viento: E 9 km/h
Temperatura: 3°C
Sensación frio: 0°C
Rocío: 0°C
Humedad: 81%
Barómetro: 1021 hPa
Clouds: Cubierto
Visibility: 10 km
Cloud details: Few Clouds 732 m
Muy nuboso 884 m
Cubierto 1341 m
2023/01/26 23:00 LESA 262300Z AUTO 08005KT 9999 FEW024 BKN029 OVC044 03/M00 Q1021
 
LEXJ - Santander/Paraya, Spain
Distance from station: NNO 247km
Actualización: Fri, 27-Jan-2023 12:00am CET
Muy nuboso
Muy nuboso
 Viento del SO
Viento: SO 7 km/h
Temperatura: 7°C
Sensación frio: 6°C
Rocío: 6°C
Humedad: 93%
Barómetro: 1025 hPa
Clouds: Muy nuboso
Visibility: 10 km
Cloud details: Parcialmente nuboso 549 m
Muy nuboso 732 m
Muy nuboso 945 m
2023/01/26 23:00 LEXJ 262300Z AUTO 23004KT 200V260 9999 SCT018 BKN024 BKN031 07/06 Q1025
LEAS - Asturias/Aviles, Spain
Distance from station: NO 214km
Actualización: Fri, 27-Jan-2023 12:00am CET
Lluvia, Cubierto
Lluvia, Cubierto
 Viento del varies
Viento: varies 6 km/h
Temperatura: 8°C
Rocío: 7°C
Humedad: 93%
Barómetro: 1026 hPa
Resumen: Lluvia
Clouds: Cubierto
Visibility: 4 km
Cloud details: Parcialmente nuboso 427 m
Muy nuboso 853 m
Cubierto 1372 m
2023/01/26 23:00 LEAS 262300Z AUTO VRB03KT 3500 RA SCT014 BKN028 OVC045 08/07 Q1026
 
LECO - La Coruna/Alvedr, Spain
Distance from station: ONO 222km
Actualización: Fri, 27-Jan-2023 12:00am CET
Parcialmente nuboso
Parcialmente nuboso
 Viento del N
Viento: N 11 km/h
Temperatura: 9°C
Sensación frio: 7°C
Rocío: 6°C
Humedad: 82%
Barómetro: 1027 hPa
Clouds: Parcialmente nuboso
Visibility: 10 km
Cloud details: Few Clouds 1158 m
Parcialmente nuboso 1219 m
2023/01/26 23:00 LECO 262300Z 01006KT 330V060 9999 FEW038 SCT040 09/06 Q1027 NOSIG
LEVX - Vigo/Peinador, Spain
Distance from station: O 214km
Actualización: Fri, 27-Jan-2023 12:00am CET
Muy nuboso
Muy nuboso
 Viento del NE
Viento: NE 6 km/h
Temperatura: 6°C
Rocío: 4°C
Humedad: 87%
Barómetro: 1024 hPa
Clouds: Muy nuboso
Visibility: 10 km
Cloud details: Few Clouds 762 m
Muy nuboso 884 m
2023/01/26 23:00 LEVX 262300Z 04003KT 350V100 9999 FEW025 BKN029 06/04 Q1024 NOSIG